createdAt,value
2018-08-24T00:00:02.146Z,101122.80
2018-08-24T00:02:30.932Z,101115.19
2018-08-24T00:04:59.722Z,101118.34
2018-08-24T00:07:28.467Z,101113.74
2018-08-24T00:09:57.079Z,101119.41
2018-08-24T00:12:25.786Z,101125.33
2018-08-24T00:14:54.593Z,101116.64
2018-08-24T00:17:29.158Z,101116.64
2018-08-24T00:19:58.321Z,101117.60
2018-08-24T00:22:27.041Z,101110.48
2018-08-24T00:24:55.601Z,101107.38
2018-08-24T00:27:24.563Z,101110.37
2018-08-24T00:29:53.560Z,101107.14
2018-08-24T00:32:22.442Z,101107.35
2018-08-24T00:34:50.948Z,101102.92
2018-08-24T00:37:20.132Z,101095.31
2018-08-24T00:39:49.051Z,101098.58
2018-08-24T00:42:17.680Z,101096.23
2018-08-24T00:44:46.314Z,101093.45
2018-08-24T00:47:15.216Z,101093.20
2018-08-24T00:49:43.813Z,101086.83
2018-08-24T00:52:12.473Z,101084.92
2018-08-24T00:54:41.188Z,101086.08
2018-08-24T00:57:09.828Z,101080.19
2018-08-24T00:59:38.532Z,101086.67
2018-08-24T01:02:07.052Z,101084.02
2018-08-24T01:04:36.437Z,101098.22
2018-08-24T01:07:10.092Z,101097.52
2018-08-24T01:09:39.642Z,101090.59
2018-08-24T01:12:11.411Z,101093.16
2018-08-24T01:14:41.971Z,101093.63
2018-08-24T01:17:16.407Z,101092.05
2018-08-24T01:19:45.341Z,101091.19
2018-08-24T01:22:14.409Z,101090.92
2018-08-24T01:24:43.043Z,101085.17
2018-08-24T01:27:11.717Z,101081.93
2018-08-24T01:29:41.774Z,101088.86
2018-08-24T01:32:10.104Z,101080.05
2018-08-24T01:34:38.994Z,101078.55
2018-08-24T01:37:07.698Z,101071.36
2018-08-24T01:39:37.955Z,101076.17
2018-08-24T01:42:07.432Z,101064.14
2018-08-24T01:44:37.841Z,101063.81
2018-08-24T01:47:08.913Z,101072.51
2018-08-24T01:49:37.713Z,101068.98
2018-08-24T01:52:06.816Z,101065.62
2018-08-24T01:54:35.783Z,101073.58
2018-08-24T01:57:05.561Z,101079.42
2018-08-24T01:59:34.414Z,101078.23
2018-08-24T02:02:03.358Z,101080.30
2018-08-24T02:04:33.125Z,101077.17
2018-08-24T02:07:01.843Z,101078.73
2018-08-24T02:09:30.956Z,101069.22
2018-08-24T02:12:00.474Z,101072.02
2018-08-24T02:14:35.029Z,101076.03
2018-08-24T02:17:03.704Z,101073.41
2018-08-24T02:19:38.183Z,101073.53
2018-08-24T02:22:12.332Z,101080.55
2018-08-24T02:24:40.953Z,101075.42
2018-08-24T02:27:09.683Z,101079.52
2018-08-24T02:29:39.007Z,101081.72
2018-08-24T02:32:07.941Z,101088.86
2018-08-24T02:34:36.507Z,101092.83
2018-08-24T02:37:05.229Z,101087.87
2018-08-24T02:39:33.880Z,101074.04
2018-08-24T02:42:02.892Z,101071.38
2018-08-24T02:44:31.460Z,101064.30
2018-08-24T02:47:00.040Z,101065.70
2018-08-24T02:49:28.905Z,101069.16
2018-08-24T02:51:57.502Z,101066.06
2018-08-24T02:54:26.219Z,101058.58
2018-08-24T02:56:55.585Z,101066.30
2018-08-24T02:59:23.690Z,101067.51
2018-08-24T03:01:52.246Z,101064.77
2018-08-24T03:04:20.824Z,101056.62
2018-08-24T03:06:49.418Z,101068.88
2018-08-24T03:09:18.060Z,101068.91
2018-08-24T03:11:46.648Z,101072.72
2018-08-24T03:14:15.400Z,101065.64
2018-08-24T03:16:49.902Z,101073.21
2018-08-24T03:19:18.506Z,101076.73
2018-08-24T03:21:47.861Z,101068.53
2018-08-24T03:24:17.171Z,101085.38
2018-08-24T03:26:45.893Z,101083.98
2018-08-24T03:29:15.056Z,101086.45
2018-08-24T03:31:44.425Z,101086.43
2018-08-24T03:34:14.663Z,101086.75
2018-08-24T03:36:44.205Z,101093.38
2018-08-24T03:39:13.179Z,101095.20
2018-08-24T03:41:42.296Z,101102.64
2018-08-24T03:44:11.223Z,101100.61
2018-08-24T03:46:42.360Z,101096.05
2018-08-24T03:49:12.192Z,101091.95
2018-08-24T03:51:41.692Z,101097.09
2018-08-24T03:54:13.334Z,101099.11
2018-08-24T03:56:43.267Z,101099.30
2018-08-24T03:59:12.173Z,101097.98
2018-08-24T04:01:41.060Z,101090.63
2018-08-24T04:04:10.456Z,101095.94
2018-08-24T04:06:39.660Z,101099.13
2018-08-24T04:09:08.504Z,101099.55
2018-08-24T04:11:37.553Z,101103.47
2018-08-24T04:14:06.308Z,101104.81
2018-08-24T04:16:40.785Z,101106.89
2018-08-24T04:19:30.908Z,101104.34
2018-08-24T04:21:59.846Z,101111.70
2018-08-24T04:24:29.028Z,101116.52
2018-08-24T04:26:58.658Z,101121.09
2018-08-24T04:29:29.036Z,101127.70
2018-08-24T04:32:02.246Z,101128.39
2018-08-24T04:34:32.349Z,101125.54
2018-08-24T04:37:02.402Z,101123.02
2018-08-24T04:39:34.318Z,101132.22
2018-08-24T04:42:04.645Z,101126.41
2018-08-24T04:44:35.057Z,101130.89
2018-08-24T04:47:06.624Z,101134.00
2018-08-24T04:49:36.498Z,101139.41
2018-08-24T04:52:05.342Z,101142.27
2018-08-24T04:57:11.491Z,101153.02
2018-08-24T04:59:43.897Z,101152.30
2018-08-24T05:02:15.480Z,101159.31
2018-08-24T05:04:47.555Z,101160.72
2018-08-24T05:07:21.803Z,101166.36
2018-08-24T05:09:54.071Z,101174.58
2018-08-24T05:12:24.422Z,101178.95
2018-08-24T05:14:54.645Z,101183.66
2018-08-24T05:17:27.181Z,101188.63
2018-08-24T05:20:01.609Z,101196.41
2018-08-24T05:25:19.595Z,101208.75
2018-08-24T05:27:49.788Z,101213.25
2018-08-24T05:30:18.734Z,101214.25
2018-08-24T05:32:54.909Z,101220.75
2018-08-24T05:35:23.523Z,101221.74
2018-08-24T05:37:55.299Z,101220.09
2018-08-24T05:40:27.977Z,101226.31
2018-08-24T05:42:58.751Z,101229.69
2018-08-24T05:45:28.579Z,101237.02
2018-08-24T05:47:58.318Z,101236.31
2018-08-24T05:50:27.412Z,101231.90
2018-08-24T05:52:56.462Z,101242.23
2018-08-24T05:55:27.511Z,101244.09
2018-08-24T05:57:57.332Z,101245.03
2018-08-24T06:00:32.282Z,101255.16
2018-08-24T06:03:03.025Z,101252.48
2018-08-24T06:05:34.256Z,101246.89
2018-08-24T06:08:04.938Z,101253.22
2018-08-24T06:10:35.484Z,101259.77
2018-08-24T06:13:04.836Z,101260.53
2018-08-24T06:15:36.655Z,101264.72
2018-08-24T06:18:07.335Z,101266.70
2018-08-24T06:20:36.821Z,101269.69
2018-08-24T06:23:05.838Z,101266.39
2018-08-24T06:25:35.412Z,101269.94
2018-08-24T06:28:08.511Z,101277.00
2018-08-24T06:30:37.400Z,101274.67
2018-08-24T06:33:10.934Z,101282.64
2018-08-24T06:35:41.455Z,101285.13
2018-08-24T06:38:11.828Z,101287.03
2018-08-24T06:40:45.024Z,101281.17
2018-08-24T06:43:16.780Z,101281.21
2018-08-24T06:45:45.755Z,101283.23
2018-08-24T06:48:19.601Z,101287.96
2018-08-24T06:50:52.051Z,101291.38
2018-08-24T06:53:23.915Z,101302.57
2018-08-24T06:58:30.816Z,101303.00
2018-08-24T07:01:02.574Z,101297.36
2018-08-24T07:03:33.395Z,101301.91
2018-08-24T07:06:04.903Z,101296.95
2018-08-24T07:08:40.014Z,101302.81
2018-08-24T07:11:09.939Z,101305.95
2018-08-24T07:13:42.227Z,101300.58
2018-08-24T07:16:15.168Z,101306.81
2018-08-24T07:18:47.064Z,101303.28
2018-08-24T07:21:21.551Z,101314.48
2018-08-24T07:23:51.187Z,101312.86
2018-08-24T07:26:23.547Z,101315.28
2018-08-24T07:28:53.553Z,101316.00
2018-08-24T07:31:22.361Z,101319.97
2018-08-24T07:33:51.241Z,101316.98
2018-08-24T07:36:20.767Z,101327.45
2018-08-24T07:38:50.690Z,101322.91
2018-08-24T07:41:21.618Z,101321.63
2018-08-24T07:43:51.870Z,101323.58
2018-08-24T07:46:25.217Z,101320.03
2018-08-24T07:48:56.468Z,101325.75
2018-08-24T07:51:25.469Z,101327.48
2018-08-24T07:53:56.918Z,101336.41
2018-08-24T07:56:31.213Z,101343.20
2018-08-24T08:00:13.868Z,101361.31
2018-08-24T08:02:45.538Z,101345.70
2018-08-24T08:05:18.558Z,101348.23
2018-08-24T08:10:30.720Z,101343.45
2018-08-24T08:13:01.026Z,101346.84
2018-08-24T08:15:30.970Z,101355.91
2018-08-24T08:18:00.382Z,101358.75
2018-08-24T08:20:29.560Z,101353.23
2018-08-24T08:22:59.415Z,101354.52
2018-08-24T08:25:28.719Z,101359.45
2018-08-24T08:27:57.885Z,101354.02
2018-08-24T08:30:27.483Z,101353.57
2018-08-24T08:32:57.560Z,101349.71
2018-08-24T08:35:27.984Z,101358.84
2018-08-24T08:37:57.224Z,101360.78
2018-08-24T08:40:28.244Z,101361.86
2018-08-24T08:42:59.427Z,101353.14
2018-08-24T08:45:29.431Z,101360.64
2018-08-24T08:47:59.441Z,101366.29
2018-08-24T08:50:30.061Z,101358.93
2018-08-24T08:52:59.477Z,101361.84
2018-08-24T08:55:29.690Z,101366.72
2018-08-24T08:58:02.000Z,101370.74
2018-08-24T09:00:44.141Z,101374.64
2018-08-24T09:03:15.125Z,101378.89
2018-08-24T09:05:45.759Z,101378.52
2018-08-24T09:08:15.915Z,101380.34
2018-08-24T09:10:45.657Z,101380.06
2018-08-24T09:13:16.023Z,101378.20
2018-08-24T09:15:46.831Z,101371.02
2018-08-24T09:18:24.790Z,101375.18
2018-08-24T09:20:59.912Z,101374.23
2018-08-24T09:23:34.863Z,101375.69
2018-08-24T09:26:14.065Z,101377.88
2018-08-24T09:28:44.453Z,101377.83
2018-08-24T09:31:19.762Z,101374.43
2018-08-24T09:33:48.965Z,101387.33
2018-08-24T09:36:21.188Z,101386.00
2018-08-24T09:38:52.734Z,101397.81
2018-08-24T09:41:24.358Z,101396.98
2018-08-24T09:43:58.762Z,101394.19
2018-08-24T09:46:35.385Z,101395.53
2018-08-24T09:49:13.065Z,101392.27
2018-08-24T09:51:45.315Z,101392.30
2018-08-24T09:54:15.271Z,101392.09
2018-08-24T09:56:45.059Z,101391.65
2018-08-24T09:59:14.417Z,101377.94
2018-08-24T10:01:48.715Z,101389.64
2018-08-24T10:04:24.594Z,101397.73
2018-08-24T10:06:59.457Z,101403.20
2018-08-24T10:09:32.261Z,101395.40
2018-08-24T10:12:03.489Z,101399.03
2018-08-24T10:14:32.609Z,101395.98
2018-08-24T10:17:03.427Z,101398.17
2018-08-24T10:19:33.310Z,101391.92
2018-08-24T10:22:03.397Z,101395.51
2018-08-24T10:24:33.426Z,101398.07
2018-08-24T10:27:03.221Z,101391.19
2018-08-24T10:29:37.705Z,101396.98
2018-08-24T10:32:08.353Z,101396.48
2018-08-24T10:34:38.648Z,101388.42
2018-08-24T10:37:09.645Z,101377.19
2018-08-24T10:39:43.030Z,101386.25
2018-08-24T10:42:13.742Z,101377.72
2018-08-24T10:44:55.707Z,101376.70
2018-08-24T10:47:25.790Z,101379.16
2018-08-24T10:49:57.940Z,101377.32
2018-08-24T10:52:27.106Z,101375.50
2018-08-24T10:54:56.833Z,101382.74
2018-08-24T10:57:30.849Z,101381.89
2018-08-24T11:00:03.107Z,101390.33
2018-08-24T11:05:14.288Z,101383.66
2018-08-24T11:08:07.354Z,101379.82
2018-08-24T11:10:37.900Z,101382.47
2018-08-24T11:13:10.837Z,101384.72
2018-08-24T11:15:45.771Z,101382.56
2018-08-24T11:18:17.516Z,101394.64
2018-08-24T11:20:47.431Z,101389.49
2018-08-24T11:23:17.308Z,101389.97
2018-08-24T11:25:48.024Z,101385.41
2018-08-24T11:28:17.835Z,101388.41
2018-08-24T11:39:51.829Z,101388.46
2018-08-24T11:42:20.708Z,101392.63
2018-08-24T11:44:50.072Z,101390.19
2018-08-24T11:50:10.190Z,101390.55
2018-08-24T11:52:43.596Z,101396.08
2018-08-24T11:55:13.299Z,101383.53
2018-08-24T11:57:45.763Z,101395.67
2018-08-24T12:00:18.474Z,101398.63
2018-08-24T12:02:47.916Z,101403.58
2018-08-24T12:05:16.999Z,101398.59
2018-08-24T12:07:48.486Z,101387.41
2018-08-24T12:10:19.493Z,101390.88
2018-08-24T12:12:47.833Z,101393.55
2018-08-24T12:15:15.919Z,101400.44
2018-08-24T12:17:44.563Z,101414.88
2018-08-24T12:20:13.446Z,101420.97
2018-08-24T12:22:41.796Z,101422.75
2018-08-24T12:25:10.136Z,101421.00
2018-08-24T12:27:38.555Z,101426.02
2018-08-24T12:30:07.750Z,101420.86
2018-08-24T12:32:36.265Z,101417.54
2018-08-24T12:35:04.972Z,101410.42
2018-08-24T12:37:50.243Z,101393.92
2018-08-24T12:40:18.928Z,101402.98
2018-08-24T12:42:47.610Z,101400.28
2018-08-24T12:45:16.206Z,101395.91
2018-08-24T12:47:45.400Z,101394.09
2018-08-24T12:50:14.343Z,101390.75
2018-08-24T12:52:43.207Z,101403.37
2018-08-24T12:55:11.880Z,101398.91
2018-08-24T12:57:40.912Z,101394.60
2018-08-24T13:00:09.577Z,101399.63
2018-08-24T13:02:38.455Z,101389.34
2018-08-24T13:05:06.987Z,101397.19
2018-08-24T13:07:35.670Z,101395.43
2018-08-24T13:10:04.411Z,101400.68
2018-08-24T13:12:32.754Z,101399.27
2018-08-24T13:15:01.332Z,101396.61
2018-08-24T13:17:30.320Z,101394.82
2018-08-24T13:19:59.271Z,101381.55
2018-08-24T13:22:27.629Z,101388.55
2018-08-24T13:24:56.285Z,101378.59
2018-08-24T13:27:24.781Z,101395.81
2018-08-24T13:29:53.158Z,101387.08
2018-08-24T13:32:21.626Z,101379.11
2018-08-24T13:34:50.656Z,101380.87
2018-08-24T13:37:19.766Z,101382.09
2018-08-24T13:39:48.438Z,101381.61
2018-08-24T13:42:17.223Z,101377.92
2018-08-24T13:44:46.853Z,101374.78
2018-08-24T13:47:16.737Z,101370.37
2018-08-24T13:49:45.214Z,101376.06
2018-08-24T13:52:15.153Z,101371.75
2018-08-24T13:54:44.091Z,101377.28
2018-08-24T13:57:13.125Z,101386.94
2018-08-24T13:59:41.973Z,101382.09
2018-08-24T14:02:11.206Z,101388.22
2018-08-24T14:04:40.177Z,101387.89
2018-08-24T14:07:09.028Z,101376.92
2018-08-24T14:09:37.652Z,101378.90
2018-08-24T14:12:09.076Z,101377.02
2018-08-24T14:14:38.074Z,101371.61
2018-08-24T14:17:07.473Z,101372.92
2018-08-24T14:19:36.133Z,101379.42
2018-08-24T14:22:04.745Z,101381.75
2018-08-24T14:24:33.911Z,101378.48
2018-08-24T14:27:02.439Z,101386.52
2018-08-24T14:29:31.122Z,101381.58
2018-08-24T14:32:00.149Z,101377.86
2018-08-24T14:34:29.991Z,101373.86
2018-08-24T14:36:58.692Z,101382.34
2018-08-24T14:39:27.381Z,101378.35
2018-08-24T14:41:56.114Z,101377.62
2018-08-24T14:46:58.748Z,101373.38
2018-08-24T14:49:27.622Z,101367.97
2018-08-24T14:51:56.716Z,101367.69
2018-08-24T14:54:26.103Z,101358.23
2018-08-24T14:56:55.009Z,101355.57
2018-08-24T14:59:25.093Z,101358.89
2018-08-24T15:01:56.501Z,101362.50
2018-08-24T15:04:26.662Z,101340.34
2018-08-24T15:06:55.941Z,101348.66
2018-08-24T15:09:25.702Z,101346.22
2018-08-24T15:11:54.530Z,101346.73
2018-08-24T15:14:24.640Z,101346.17
2018-08-24T15:16:53.700Z,101349.86
2018-08-24T15:19:22.146Z,101337.03
2018-08-24T15:21:51.780Z,101351.33
2018-08-24T15:24:20.928Z,101340.84
2018-08-24T15:26:50.094Z,101342.04
2018-08-24T15:29:18.677Z,101333.52
2018-08-24T15:31:48.241Z,101338.16
2018-08-24T15:34:17.208Z,101335.45
2018-08-24T15:36:46.766Z,101351.23
2018-08-24T15:39:16.715Z,101346.40
2018-08-24T15:41:46.303Z,101352.33
2018-08-24T15:44:15.381Z,101342.84
2018-08-24T15:46:44.350Z,101345.77
2018-08-24T15:49:13.256Z,101355.37
2018-08-24T15:51:43.002Z,101348.48
2018-08-24T15:54:13.038Z,101340.69
2018-08-24T15:56:43.534Z,101346.22
2018-08-24T15:59:13.048Z,101345.05
2018-08-24T16:01:43.635Z,101345.20
2018-08-24T16:04:13.278Z,101340.88
2018-08-24T16:06:42.457Z,101344.37
2018-08-24T16:09:13.349Z,101340.03
2018-08-24T16:11:43.266Z,101343.52
2018-08-24T16:14:12.410Z,101338.46
2018-08-24T16:16:41.034Z,101358.02
2018-08-24T16:19:10.027Z,101350.16
2018-08-24T16:21:40.003Z,101349.09
2018-08-24T16:24:08.828Z,101351.30
2018-08-24T16:26:37.971Z,101351.59
2018-08-24T16:29:06.738Z,101351.16
2018-08-24T16:34:08.158Z,101348.19
2018-08-24T16:36:37.053Z,101334.59
2018-08-24T16:39:08.388Z,101334.63
2018-08-24T16:41:37.219Z,101331.56
2018-08-24T16:44:06.166Z,101325.73
2018-08-24T16:46:35.486Z,101324.17
2018-08-24T16:49:04.534Z,101321.50
2018-08-24T16:51:34.520Z,101324.66
2018-08-24T16:54:04.596Z,101319.75
2018-08-24T16:56:33.493Z,101329.59
2018-08-24T16:59:02.183Z,101325.06
2018-08-24T17:01:31.004Z,101324.39
2018-08-24T17:03:59.990Z,101314.05
2018-08-24T17:06:29.076Z,101316.94
2018-08-24T17:08:57.591Z,101318.80
2018-08-24T17:11:25.976Z,101316.77
2018-08-24T17:13:54.577Z,101316.52
2018-08-24T17:16:23.316Z,101316.14
2018-08-24T17:18:52.136Z,101312.84
2018-08-24T17:21:20.984Z,101301.20
2018-08-24T17:23:49.827Z,101297.48
2018-08-24T17:26:18.296Z,101290.92
2018-08-24T17:28:47.705Z,101297.28
2018-08-24T17:31:16.819Z,101290.27
2018-08-24T17:33:45.913Z,101289.39
2018-08-24T17:36:14.909Z,101286.78
2018-08-24T17:38:44.195Z,101276.61
2018-08-24T17:41:12.998Z,101278.17
2018-08-24T17:43:41.499Z,101274.78
2018-08-24T17:46:10.227Z,101273.00
2018-08-24T17:48:38.764Z,101258.86
2018-08-24T17:51:07.922Z,101258.52
2018-08-24T17:53:37.075Z,101254.99
2018-08-24T17:56:05.681Z,101242.83
2018-08-24T17:58:37.592Z,101241.72
2018-08-24T18:01:06.272Z,101237.14
2018-08-24T18:03:36.333Z,101239.81
2018-08-24T18:06:05.661Z,101233.16
2018-08-24T18:08:34.309Z,101233.33
2018-08-24T18:11:03.102Z,101237.76
2018-08-24T18:13:32.135Z,101238.21
2018-08-24T18:16:00.743Z,101240.74
2018-08-24T18:18:29.688Z,101241.58
2018-08-24T18:20:58.199Z,101239.88
2018-08-24T18:23:27.165Z,101238.65
2018-08-24T18:25:55.871Z,101246.78
2018-08-24T18:28:24.583Z,101238.45
2018-08-24T18:30:53.345Z,101234.16
2018-08-24T18:33:22.890Z,101225.70
2018-08-24T18:35:52.450Z,101229.02
2018-08-24T18:38:21.644Z,101227.41
2018-08-24T18:40:50.278Z,101220.79
2018-08-24T18:43:19.148Z,101223.99
2018-08-24T18:45:48.168Z,101221.88
2018-08-24T18:48:17.188Z,101215.84
2018-08-24T18:50:45.932Z,101211.83
2018-08-24T18:53:14.997Z,101208.33
2018-08-24T18:55:43.467Z,101198.96
2018-08-24T18:58:11.939Z,101201.84
2018-08-24T19:00:40.776Z,101195.45
2018-08-24T19:03:09.512Z,101199.16
2018-08-24T19:05:38.096Z,101191.09
2018-08-24T19:08:10.508Z,101183.33
2018-08-24T19:10:45.019Z,101185.64
2018-08-24T19:13:15.315Z,101187.66
2018-08-24T19:15:45.407Z,101184.84
2018-08-24T19:18:19.555Z,101189.27
2018-08-24T19:20:53.956Z,101182.20
2018-08-24T19:23:22.668Z,101184.73
2018-08-24T19:25:51.252Z,101188.48
2018-08-24T19:28:25.437Z,101185.14
2018-08-24T19:30:54.060Z,101186.70
2018-08-24T19:33:22.724Z,101177.99
2018-08-24T19:35:51.140Z,101176.37
2018-08-24T19:38:19.679Z,101173.39
2018-08-24T19:40:53.832Z,101175.19
2018-08-24T19:43:22.736Z,101180.62
2018-08-24T19:45:51.233Z,101176.33
2018-08-24T19:48:25.659Z,101174.98
2018-08-24T19:50:54.279Z,101179.47
2018-08-24T19:53:23.120Z,101184.53
2018-08-24T19:55:51.640Z,101183.23
2018-08-24T19:58:25.894Z,101178.66
2018-08-24T20:00:54.311Z,101177.41
2018-08-24T20:03:22.852Z,101176.30
2018-08-24T20:05:57.120Z,101172.77
2018-08-24T20:08:31.438Z,101166.04
2018-08-24T20:11:00.120Z,101163.73
2018-08-24T20:13:28.716Z,101159.46
2018-08-24T20:16:03.047Z,101152.70
2018-08-24T20:18:31.936Z,101147.82
2018-08-24T20:21:00.680Z,101148.16
2018-08-24T20:23:29.938Z,101145.20
2018-08-24T20:25:58.667Z,101145.15
2018-08-24T20:28:27.409Z,101138.82
2018-08-24T20:30:56.280Z,101140.75
2018-08-24T20:33:24.668Z,101143.72
2018-08-24T20:35:53.359Z,101138.27
2018-08-24T20:38:22.341Z,101139.47
2018-08-24T20:40:51.035Z,101127.55
2018-08-24T20:43:19.624Z,101123.59
2018-08-24T20:45:48.821Z,101122.41
2018-08-24T20:48:17.640Z,101120.78
2018-08-24T20:50:46.202Z,101127.17
2018-08-24T20:53:14.960Z,101125.33
2018-08-24T20:55:44.615Z,101132.08
2018-08-24T20:58:14.134Z,101121.53
2018-08-24T21:00:43.515Z,101121.76
2018-08-24T21:03:13.315Z,101125.88
2018-08-24T21:05:41.911Z,101121.27
2018-08-24T21:08:11.153Z,101114.98
2018-08-24T21:10:41.425Z,101110.80
2018-08-24T21:13:09.989Z,101115.09
2018-08-24T21:15:39.411Z,101108.83
2018-08-24T21:18:09.201Z,101118.56
2018-08-24T21:20:38.087Z,101127.84
2018-08-24T21:23:06.888Z,101138.61
2018-08-24T21:25:36.566Z,101141.47
2018-08-24T21:28:05.277Z,101137.84
2018-08-24T21:30:35.283Z,101146.24
2018-08-24T21:33:04.000Z,101143.30
2018-08-24T21:35:32.666Z,101141.32
2018-08-24T21:38:01.224Z,101141.23
2018-08-24T21:40:30.044Z,101141.55
2018-08-24T21:42:58.595Z,101129.91
2018-08-24T21:45:27.087Z,101133.80
2018-08-24T21:47:55.495Z,101133.64
2018-08-24T21:50:24.266Z,101132.93
2018-08-24T21:52:53.098Z,101128.44
2018-08-24T21:55:21.713Z,101122.52
2018-08-24T21:57:50.279Z,101129.02
2018-08-24T22:00:19.090Z,101120.52
2018-08-24T22:02:47.802Z,101106.91
2018-08-24T22:05:16.491Z,101115.40
2018-08-24T22:07:44.971Z,101108.98
2018-08-24T22:10:13.683Z,101102.91
2018-08-24T22:12:42.184Z,101104.05
2018-08-24T22:15:10.842Z,101106.58
2018-08-24T22:17:39.339Z,101125.44
2018-08-24T22:20:08.008Z,101122.60
2018-08-24T22:22:36.681Z,101127.53
2018-08-24T22:25:05.523Z,101119.34
2018-08-24T22:27:34.055Z,101126.38
2018-08-24T22:30:02.717Z,101115.44
2018-08-24T22:32:31.134Z,101114.89
2018-08-24T22:35:00.608Z,101118.52
2018-08-24T22:37:29.416Z,101106.86
2018-08-24T22:39:59.201Z,101099.20
2018-08-24T22:42:27.663Z,101100.79
2018-08-24T22:44:56.101Z,101098.27
2018-08-24T22:47:24.939Z,101102.16
2018-08-24T22:49:54.154Z,101098.20
2018-08-24T22:52:23.031Z,101083.51
2018-08-24T22:54:52.280Z,101084.16
2018-08-24T22:57:21.086Z,101073.06
2018-08-24T22:59:50.385Z,101056.66
2018-08-24T23:02:19.288Z,101058.80
2018-08-24T23:04:48.217Z,101049.98
2018-08-24T23:07:17.560Z,101051.90
2018-08-24T23:09:46.422Z,101049.68
2018-08-24T23:12:15.652Z,101042.14
2018-08-24T23:14:44.330Z,101038.17
2018-08-24T23:17:13.989Z,101036.48
2018-08-24T23:19:43.052Z,101032.22
2018-08-24T23:22:12.340Z,101022.14
2018-08-24T23:24:41.150Z,101017.43
2018-08-24T23:27:10.719Z,101014.44
2018-08-24T23:29:39.480Z,101016.30
2018-08-24T23:32:08.290Z,101005.91
2018-08-24T23:34:37.060Z,101010.34
2018-08-24T23:37:06.421Z,101002.63
2018-08-24T23:39:35.312Z,101001.56
2018-08-24T23:42:04.031Z,101014.42
2018-08-24T23:44:32.852Z,101003.23
2018-08-24T23:47:01.845Z,100999.91
2018-08-24T23:49:30.696Z,100997.59
2018-08-24T23:51:59.608Z,100988.58
2018-08-24T23:54:28.686Z,100984.27
2018-08-24T23:56:57.904Z,100984.80
2018-08-24T23:59:27.046Z,100982.42
